createdAt,value
2022-12-04T00:01:30.313Z,17.83
2022-12-04T00:04:00.231Z,17.98
2022-12-04T00:06:29.640Z,18.42
2022-12-04T00:08:58.453Z,17.38
2022-12-04T00:11:29.489Z,19.33
2022-12-04T00:14:06.500Z,16.67
2022-12-04T00:16:36.142Z,17.20
2022-12-04T00:19:05.060Z,17.73
2022-12-04T00:21:33.658Z,18.88
2022-12-04T00:24:02.351Z,19.40
2022-12-04T00:26:31.940Z,18.38
2022-12-04T00:29:01.724Z,17.67
2022-12-04T00:31:32.017Z,17.45
2022-12-04T00:34:02.212Z,17.15
2022-12-04T00:36:31.601Z,18.10
2022-12-04T00:39:01.794Z,16.38
2022-12-04T00:41:31.900Z,16.75
2022-12-04T00:44:02.401Z,17.67
2022-12-04T00:46:31.073Z,17.48
2022-12-04T00:49:02.627Z,16.05
2022-12-04T00:51:31.348Z,16.95
2022-12-04T00:53:59.729Z,16.83
2022-12-04T00:56:29.890Z,17.95
2022-12-04T00:59:00.206Z,16.88
2022-12-04T01:01:31.342Z,17.00
2022-12-04T01:04:00.291Z,17.02
2022-12-04T01:06:30.897Z,17.35
2022-12-04T01:09:00.434Z,17.38
2022-12-04T01:11:30.720Z,17.98
2022-12-04T01:14:00.049Z,17.30
2022-12-04T01:16:32.414Z,16.15
2022-12-04T01:19:01.298Z,17.30
2022-12-04T01:21:29.947Z,17.50
2022-12-04T01:23:58.954Z,16.58
2022-12-04T01:26:27.413Z,17.55
2022-12-04T01:28:55.801Z,18.80
2022-12-04T01:31:24.275Z,18.50
2022-12-04T01:33:54.551Z,18.50
2022-12-04T01:36:25.513Z,17.55
2022-12-04T01:38:54.579Z,19.05
2022-12-04T01:41:26.895Z,16.35
2022-12-04T01:44:16.027Z,17.15
2022-12-04T01:46:46.538Z,16.33
2022-12-04T01:49:21.600Z,17.05
2022-12-04T01:51:53.750Z,16.73
2022-12-04T01:54:28.844Z,16.90
2022-12-04T01:57:02.599Z,16.88
2022-12-04T01:59:35.387Z,16.70
2022-12-04T02:02:07.165Z,17.27
2022-12-04T02:04:37.803Z,16.20
2022-12-04T02:07:06.452Z,17.40
2022-12-04T02:09:36.772Z,17.92
2022-12-04T02:12:10.261Z,16.27
2022-12-04T02:14:47.658Z,16.65
2022-12-04T02:17:24.232Z,16.35
2022-12-04T02:20:12.524Z,15.68
2022-12-04T02:22:58.903Z,16.27
2022-12-04T02:25:37.347Z,15.90
2022-12-04T02:28:11.664Z,14.60
2022-12-04T02:30:43.822Z,14.60
2022-12-04T02:33:20.930Z,16.38
2022-12-04T02:35:53.610Z,16.10
2022-12-04T02:38:27.222Z,14.18
2022-12-04T02:41:00.706Z,15.02
2022-12-04T02:43:33.888Z,13.00
2022-12-04T02:46:08.216Z,13.77
2022-12-04T02:48:40.857Z,13.60
2022-12-04T02:51:12.876Z,14.88
2022-12-04T02:53:46.115Z,14.07
2022-12-04T02:56:18.770Z,13.93
2022-12-04T02:58:53.082Z,15.27
2022-12-04T03:01:28.795Z,14.10
2022-12-04T03:04:02.156Z,14.63
2022-12-04T03:06:34.752Z,13.65
2022-12-04T03:09:07.883Z,13.93
2022-12-04T03:11:39.748Z,13.80
2022-12-04T03:14:16.126Z,13.15
2022-12-04T03:16:44.934Z,14.50
2022-12-04T03:19:18.782Z,13.77
2022-12-04T03:21:52.456Z,14.77
2022-12-04T03:27:00.569Z,15.45
2022-12-04T03:29:35.567Z,15.98
2022-12-04T03:32:11.957Z,16.70
2022-12-04T03:34:46.696Z,15.13
2022-12-04T03:37:19.336Z,15.68
2022-12-04T03:39:56.878Z,15.73
2022-12-04T03:42:29.242Z,16.35
2022-12-04T03:45:04.434Z,16.00
2022-12-04T03:47:38.436Z,15.73
2022-12-04T03:50:11.661Z,14.90
2022-12-04T03:52:49.999Z,16.88
2022-12-04T03:55:26.318Z,16.08
2022-12-04T03:57:58.331Z,15.40
2022-12-04T04:00:28.692Z,15.63
2022-12-04T04:03:02.608Z,15.85
2022-12-04T04:05:33.191Z,15.02
2022-12-04T04:08:19.615Z,15.98
2022-12-04T04:10:48.350Z,15.13
2022-12-04T04:13:34.903Z,15.55
2022-12-04T04:16:25.162Z,14.85
2022-12-04T04:19:13.896Z,13.48
2022-12-04T04:22:01.261Z,14.48
2022-12-04T04:24:36.096Z,14.85
2022-12-04T04:27:04.756Z,14.70
2022-12-04T04:29:33.329Z,13.98
2022-12-04T04:32:11.166Z,14.82
2022-12-04T04:34:48.852Z,14.38
2022-12-04T04:37:26.619Z,13.93
2022-12-04T04:40:05.215Z,13.68
2022-12-04T04:42:38.891Z,14.10
2022-12-04T04:47:49.246Z,14.85
2022-12-04T04:50:20.320Z,14.57
2022-12-04T04:52:52.532Z,14.50
2022-12-04T04:55:21.654Z,14.15
2022-12-04T04:57:50.193Z,15.10
2022-12-04T05:00:22.552Z,14.02
2022-12-04T05:02:52.768Z,15.07
2022-12-04T05:05:21.135Z,15.00
2022-12-04T05:07:49.566Z,15.07
2022-12-04T05:10:17.962Z,14.60
2022-12-04T05:12:46.404Z,15.75
2022-12-04T05:15:14.796Z,14.75
2022-12-04T05:17:43.130Z,15.00
2022-12-04T05:20:13.662Z,14.55
2022-12-04T05:22:41.997Z,15.20
2022-12-04T05:25:11.724Z,15.90
2022-12-04T05:27:40.651Z,14.70
2022-12-04T05:30:10.163Z,15.55
2022-12-04T05:32:38.447Z,14.82
2022-12-04T05:35:10.956Z,14.77
2022-12-04T05:37:42.384Z,16.05
2022-12-04T05:40:11.577Z,16.63
2022-12-04T05:42:39.899Z,15.07
2022-12-04T05:45:09.220Z,16.27
2022-12-04T05:47:40.493Z,17.45
2022-12-04T05:50:10.819Z,17.80
2022-12-04T05:52:41.303Z,17.45
2022-12-04T05:55:10.087Z,16.83
2022-12-04T05:57:38.467Z,17.65
2022-12-04T06:00:08.098Z,18.08
2022-12-04T06:02:36.639Z,17.08
2022-12-04T06:05:05.873Z,17.98
2022-12-04T06:07:34.548Z,17.83
2022-12-04T06:10:04.414Z,17.38
2022-12-04T06:12:32.793Z,18.20
2022-12-04T06:15:01.081Z,18.40
2022-12-04T06:17:29.600Z,17.73
2022-12-04T06:19:58.739Z,18.20
2022-12-04T06:22:27.432Z,19.33
2022-12-04T06:24:55.741Z,18.95
2022-12-04T06:27:28.045Z,18.77
2022-12-04T06:29:56.902Z,18.48
2022-12-04T06:32:25.539Z,18.88
2022-12-04T06:34:54.641Z,18.52
2022-12-04T06:37:24.488Z,19.88
2022-12-04T06:39:53.906Z,18.25
2022-12-04T06:42:22.465Z,18.05
2022-12-04T06:44:52.243Z,18.83
2022-12-04T06:47:20.577Z,23.48
2022-12-04T06:49:51.250Z,25.25
2022-12-04T06:52:20.027Z,21.30
2022-12-04T06:54:48.380Z,22.55
2022-12-04T06:57:16.792Z,23.48
2022-12-04T06:59:45.828Z,21.00
2022-12-04T07:02:15.831Z,22.35
2022-12-04T07:04:44.284Z,19.85
2022-12-04T07:07:12.932Z,21.92
2022-12-04T07:09:41.243Z,21.35
2022-12-04T07:12:09.591Z,23.38
2022-12-04T07:14:37.953Z,20.20
2022-12-04T07:17:06.929Z,24.70
2022-12-04T07:19:36.715Z,20.55
2022-12-04T07:22:05.104Z,23.55
2022-12-04T07:24:33.516Z,21.40
2022-12-04T07:27:02.333Z,22.70
2022-12-04T07:29:31.086Z,22.20
2022-12-04T07:31:59.518Z,21.40
2022-12-04T07:34:27.945Z,21.75
2022-12-04T07:36:57.816Z,21.08
2022-12-04T07:39:26.187Z,22.48
2022-12-04T07:41:54.554Z,20.52
2022-12-04T07:44:22.853Z,21.30
2022-12-04T07:46:51.209Z,22.17
2022-12-04T07:49:19.507Z,20.45
2022-12-04T07:51:47.850Z,17.75
2022-12-04T07:54:17.984Z,19.65
2022-12-04T07:56:46.328Z,20.90
2022-12-04T07:59:14.746Z,21.88
2022-12-04T08:01:43.114Z,21.00
2022-12-04T08:04:13.022Z,18.40
2022-12-04T08:06:41.908Z,18.50
2022-12-04T08:09:10.624Z,21.92
2022-12-04T08:11:40.553Z,20.80
2022-12-04T08:14:10.128Z,18.58
2022-12-04T08:16:38.607Z,20.75
2022-12-04T08:19:07.099Z,19.02
2022-12-04T08:21:35.577Z,20.38
2022-12-04T08:24:04.409Z,18.73
2022-12-04T08:26:33.855Z,24.83
2022-12-04T08:29:04.787Z,23.60
2022-12-04T08:31:35.877Z,21.77
2022-12-04T08:34:07.211Z,19.27
2022-12-04T08:36:36.166Z,20.35
2022-12-04T08:39:05.056Z,17.83
2022-12-04T08:41:33.964Z,20.30
2022-12-04T08:44:04.385Z,20.67
2022-12-04T08:46:32.831Z,24.40
2022-12-04T08:49:01.600Z,20.55
2022-12-04T08:51:32.091Z,21.55
2022-12-04T08:54:02.749Z,22.60
2022-12-04T08:56:32.392Z,27.27
2022-12-04T08:59:02.021Z,22.98
2022-12-04T09:01:32.254Z,23.13
2022-12-04T09:04:00.846Z,24.80
2022-12-04T09:06:29.181Z,21.35
2022-12-04T09:08:58.364Z,20.20
2022-12-04T09:11:29.964Z,24.52
2022-12-04T09:13:59.083Z,21.65
2022-12-04T09:16:27.948Z,24.02
2022-12-04T09:18:57.728Z,20.25
2022-12-04T09:21:26.923Z,24.58
2022-12-04T09:23:55.304Z,21.70
2022-12-04T09:26:26.919Z,22.45
2022-12-04T09:28:57.846Z,26.63
2022-12-04T09:31:26.661Z,25.80
2022-12-04T09:33:56.205Z,24.85
2022-12-04T09:36:25.932Z,23.92
2022-12-04T09:38:55.792Z,26.30
2022-12-04T09:41:51.198Z,21.25
2022-12-04T09:44:24.545Z,22.15
2022-12-04T09:46:56.438Z,26.38
2022-12-04T09:49:30.841Z,26.70
2022-12-04T09:52:05.483Z,21.88
2022-12-04T09:54:41.034Z,22.60
2022-12-04T09:57:29.423Z,23.33
2022-12-04T09:59:58.664Z,22.90
2022-12-04T10:02:36.926Z,24.38
2022-12-04T10:05:06.414Z,21.52
2022-12-04T10:07:47.296Z,23.75
2022-12-04T10:10:20.750Z,20.98
2022-12-04T10:12:58.996Z,24.33
2022-12-04T10:15:35.728Z,20.98
2022-12-04T10:18:26.776Z,23.42
2022-12-04T10:21:15.594Z,23.52
2022-12-04T10:23:57.126Z,24.65
2022-12-04T10:26:31.248Z,22.55
2022-12-04T10:29:04.386Z,21.52
2022-12-04T10:31:36.506Z,22.30
2022-12-04T10:34:09.064Z,24.65
2022-12-04T10:36:37.581Z,24.08
2022-12-04T10:39:16.036Z,20.42
2022-12-04T10:41:53.293Z,19.30
2022-12-04T10:44:22.316Z,19.75
2022-12-04T10:46:52.720Z,26.88
2022-12-04T10:49:25.244Z,22.30
2022-12-04T10:51:54.843Z,21.88
2022-12-04T10:54:31.407Z,24.00
2022-12-04T10:57:01.712Z,21.35
2022-12-04T10:59:30.907Z,18.58
2022-12-04T11:02:07.271Z,19.98
2022-12-04T11:04:37.131Z,21.25
2022-12-04T11:07:08.868Z,19.23
2022-12-04T11:09:38.883Z,23.92
2022-12-04T11:12:10.483Z,19.77
2022-12-04T11:14:42.730Z,19.65
2022-12-04T11:17:18.892Z,19.70
2022-12-04T11:19:47.967Z,19.05
2022-12-04T11:22:19.478Z,22.83
2022-12-04T11:24:56.599Z,21.00
2022-12-04T11:27:31.696Z,18.90
2022-12-04T11:30:02.373Z,28.40
2022-12-04T11:32:32.916Z,22.50
2022-12-04T11:35:07.137Z,20.65
2022-12-04T11:37:39.352Z,20.48
2022-12-04T11:40:21.154Z,22.88
2022-12-04T11:43:03.846Z,20.65
2022-12-04T11:45:32.785Z,22.23
2022-12-04T11:48:03.664Z,26.40
2022-12-04T11:50:40.873Z,23.83
2022-12-04T11:53:17.452Z,22.08
2022-12-04T11:56:08.428Z,20.20
2022-12-04T11:58:56.940Z,20.17
2022-12-04T12:01:42.386Z,20.85
2022-12-04T12:04:38.525Z,22.73
2022-12-04T12:07:25.240Z,21.08
2022-12-04T12:10:05.246Z,23.05
2022-12-04T12:12:45.418Z,23.77
2022-12-04T12:15:25.802Z,24.10
2022-12-04T12:18:16.461Z,23.90
2022-12-04T12:20:57.296Z,25.03
2022-12-04T12:23:41.714Z,28.92
2022-12-04T12:26:13.186Z,27.77
2022-12-04T12:29:02.997Z,24.88
2022-12-04T12:31:51.688Z,22.73
2022-12-04T12:34:37.402Z,21.17
2022-12-04T12:37:17.063Z,23.95
2022-12-04T12:39:49.688Z,21.60
2022-12-04T12:42:22.991Z,22.60
2022-12-04T12:44:59.415Z,24.05
2022-12-04T12:47:32.221Z,24.08
2022-12-04T12:50:06.247Z,22.60
2022-12-04T12:52:40.236Z,24.98
2022-12-04T12:55:19.665Z,23.52
2022-12-04T12:58:02.615Z,20.40
2022-12-04T13:00:38.403Z,22.40
2022-12-04T13:03:13.636Z,18.73
2022-12-04T13:05:46.991Z,20.27
2022-12-04T13:08:22.796Z,20.20
2022-12-04T13:11:03.317Z,21.25
2022-12-04T13:13:35.141Z,22.27
2022-12-04T13:16:11.947Z,21.35
2022-12-04T13:18:45.413Z,24.60
2022-12-04T13:21:34.400Z,22.70
2022-12-04T13:24:32.087Z,20.30
2022-12-04T13:27:08.460Z,22.63
2022-12-04T13:29:51.574Z,30.75
2022-12-04T13:32:51.453Z,23.38
2022-12-04T13:35:29.617Z,20.58
2022-12-04T13:38:15.227Z,24.48
2022-12-04T13:40:47.905Z,25.88
2022-12-04T13:43:32.585Z,23.67
2022-12-04T13:46:03.899Z,34.88
2022-12-04T13:48:40.346Z,27.35
2022-12-04T13:51:24.362Z,24.20
2022-12-04T13:56:32.655Z,24.88
2022-12-04T13:59:03.483Z,24.38
2022-12-04T14:01:38.848Z,26.83
2022-12-04T14:04:09.081Z,25.27
2022-12-04T14:06:40.548Z,25.48
2022-12-04T14:09:19.741Z,25.30
2022-12-04T14:11:52.492Z,26.23
2022-12-04T14:14:28.963Z,24.13
2022-12-04T14:16:59.473Z,23.23
2022-12-04T14:19:33.753Z,23.52
2022-12-04T14:22:02.289Z,22.48
2022-12-04T14:24:35.179Z,30.00
2022-12-04T14:27:12.529Z,22.48
2022-12-04T14:29:49.656Z,21.92
2022-12-04T14:32:23.579Z,22.52
2022-12-04T14:34:54.847Z,21.73
2022-12-04T14:37:30.669Z,26.10
2022-12-04T14:40:00.161Z,28.02
2022-12-04T14:42:34.890Z,28.52
2022-12-04T14:45:06.369Z,26.70
2022-12-04T14:47:44.480Z,25.20
2022-12-04T14:50:26.903Z,25.67
2022-12-04T14:53:05.173Z,26.33
2022-12-04T14:55:41.747Z,24.63
2022-12-04T14:58:34.773Z,26.48
2022-12-04T15:01:05.204Z,33.40
2022-12-04T15:03:37.920Z,26.25
2022-12-04T15:06:10.267Z,22.50
2022-12-04T15:08:49.506Z,29.27
2022-12-04T15:11:40.124Z,25.38
2022-12-04T15:14:15.008Z,25.25
2022-12-04T15:16:43.653Z,22.10
2022-12-04T15:19:18.968Z,22.80
2022-12-04T15:21:49.220Z,26.45
2022-12-04T15:24:24.323Z,29.63
2022-12-04T15:26:54.073Z,30.67
2022-12-04T15:29:26.085Z,29.73
2022-12-04T15:31:57.971Z,28.52
2022-12-04T15:34:32.386Z,27.67
2022-12-04T15:37:08.018Z,27.10
2022-12-04T15:39:38.233Z,28.05
2022-12-04T15:42:08.563Z,28.35
2022-12-04T15:44:38.007Z,32.75
2022-12-04T15:47:23.977Z,28.38
2022-12-04T15:49:52.748Z,30.67
2022-12-04T15:52:25.365Z,28.70
2022-12-04T15:54:57.797Z,31.15
2022-12-04T15:57:30.995Z,34.47
2022-12-04T16:00:03.212Z,31.45
2022-12-04T16:02:35.852Z,34.80
2022-12-04T16:05:13.537Z,31.17
2022-12-04T16:07:52.724Z,34.80
2022-12-04T16:10:23.147Z,29.55
2022-12-04T16:12:54.753Z,29.40
2022-12-04T16:15:23.867Z,26.05
2022-12-04T16:17:53.181Z,25.77
2022-12-04T16:20:22.747Z,26.23
2022-12-04T16:22:56.149Z,25.67
2022-12-04T16:25:25.030Z,25.70
2022-12-04T16:27:54.386Z,26.40
2022-12-04T16:30:23.075Z,25.38
2022-12-04T16:32:51.387Z,24.45
2022-12-04T16:35:19.944Z,29.65
2022-12-04T16:37:49.103Z,29.50
2022-12-04T16:40:19.164Z,33.63
2022-12-04T16:42:47.514Z,30.58
2022-12-04T16:45:24.464Z,32.00
2022-12-04T16:47:53.144Z,35.88
2022-12-04T16:50:21.931Z,36.83
2022-12-04T16:52:50.225Z,24.58
2022-12-04T16:55:25.947Z,25.98
2022-12-04T16:57:54.311Z,27.63
2022-12-04T17:00:24.151Z,27.20
2022-12-04T17:02:52.973Z,31.88
2022-12-04T17:05:23.371Z,32.25
2022-12-04T17:07:51.951Z,30.55
2022-12-04T17:10:24.153Z,34.05
2022-12-04T17:12:54.769Z,35.35
2022-12-04T17:15:23.537Z,32.85
2022-12-04T17:17:52.150Z,41.00
2022-12-04T17:20:22.291Z,31.63
2022-12-04T17:22:51.062Z,30.02
2022-12-04T17:25:19.815Z,33.03
2022-12-04T17:27:49.971Z,32.08
2022-12-04T17:30:18.479Z,31.15
2022-12-04T17:32:47.925Z,32.50
2022-12-04T17:35:16.837Z,34.30
2022-12-04T17:37:45.589Z,33.22
2022-12-04T17:40:14.957Z,31.38
2022-12-04T17:42:44.649Z,31.73
2022-12-04T17:45:17.074Z,34.83
2022-12-04T17:47:45.436Z,33.55
2022-12-04T17:50:15.755Z,27.98
2022-12-04T17:52:44.545Z,28.90
2022-12-04T17:55:12.854Z,29.02
2022-12-04T17:57:41.235Z,25.23
2022-12-04T18:00:10.864Z,27.42
2022-12-04T18:02:42.626Z,26.65
2022-12-04T18:05:11.830Z,26.67
2022-12-04T18:07:40.306Z,28.67
2022-12-04T18:10:09.240Z,27.17
2022-12-04T18:12:38.460Z,26.80
2022-12-04T18:15:07.920Z,28.05
2022-12-04T18:17:37.213Z,26.83
2022-12-04T18:20:09.109Z,24.80
2022-12-04T18:22:37.700Z,29.10
2022-12-04T18:25:07.532Z,25.23
2022-12-04T18:27:40.464Z,29.13
2022-12-04T18:30:10.977Z,28.65
2022-12-04T18:32:39.459Z,24.15
2022-12-04T18:35:10.052Z,28.90
2022-12-04T18:37:38.414Z,31.50
2022-12-04T18:40:08.720Z,27.13
2022-12-04T18:42:37.763Z,28.67
2022-12-04T18:45:06.848Z,24.30
2022-12-04T18:47:36.754Z,24.77
2022-12-04T18:50:05.219Z,25.48
2022-12-04T18:52:38.618Z,24.55
2022-12-04T18:55:07.483Z,24.02
2022-12-04T18:57:35.962Z,21.83
2022-12-04T19:00:05.010Z,22.58
2022-12-04T19:02:33.483Z,22.70
2022-12-04T19:05:02.572Z,19.90
2022-12-04T19:07:31.092Z,19.98
2022-12-04T19:10:16.345Z,21.67
2022-12-04T19:12:44.876Z,20.23
2022-12-04T19:15:13.315Z,19.17
2022-12-04T19:17:41.727Z,22.27
2022-12-04T19:20:11.537Z,23.73
2022-12-04T19:22:40.058Z,25.77
2022-12-04T19:25:10.836Z,26.45
2022-12-04T19:27:39.369Z,20.58
2022-12-04T19:30:09.063Z,23.13
2022-12-04T19:32:37.459Z,22.20
2022-12-04T19:35:06.317Z,21.42
2022-12-04T19:37:38.276Z,19.70
2022-12-04T19:40:13.898Z,22.70
2022-12-04T19:42:42.286Z,22.20
2022-12-04T19:45:11.482Z,23.73
2022-12-04T19:47:39.843Z,22.45
2022-12-04T19:50:10.484Z,22.00
2022-12-04T19:52:40.156Z,24.60
2022-12-04T19:55:13.686Z,19.92
2022-12-04T19:57:43.563Z,20.25
2022-12-04T20:00:15.104Z,18.70
2022-12-04T20:02:44.880Z,19.05
2022-12-04T20:05:14.891Z,19.83
2022-12-04T20:07:44.813Z,18.45
2022-12-04T20:10:16.699Z,19.33
2022-12-04T20:12:46.498Z,17.85
2022-12-04T20:15:16.193Z,18.23
2022-12-04T20:17:45.867Z,17.25
2022-12-04T20:20:16.039Z,17.45
2022-12-04T20:22:45.869Z,17.95
2022-12-04T20:25:17.219Z,17.73
2022-12-04T20:27:47.952Z,16.50
2022-12-04T20:30:17.757Z,18.58
2022-12-04T20:32:47.382Z,16.45
2022-12-04T20:35:17.280Z,16.13
2022-12-04T20:37:47.312Z,16.08
2022-12-04T20:40:19.798Z,15.35
2022-12-04T20:42:49.348Z,17.10
2022-12-04T20:45:19.075Z,16.27
2022-12-04T20:47:48.935Z,17.20
2022-12-04T20:50:19.450Z,18.27
2022-12-04T20:52:49.126Z,16.27
2022-12-04T20:55:20.699Z,17.00
2022-12-04T20:57:50.415Z,17.80
2022-12-04T21:00:20.633Z,17.15
2022-12-04T21:02:51.560Z,16.60
2022-12-04T21:05:21.900Z,16.58
2022-12-04T21:07:50.456Z,14.15
2022-12-04T21:10:20.212Z,14.23
2022-12-04T21:13:07.079Z,16.33
2022-12-04T21:15:54.497Z,15.82
2022-12-04T21:18:24.772Z,14.35
2022-12-04T21:20:57.145Z,16.33
2022-12-04T21:23:27.375Z,17.10
2022-12-04T21:25:59.676Z,15.20
2022-12-04T21:28:29.501Z,15.93
2022-12-04T21:31:03.677Z,15.93
2022-12-04T21:33:36.139Z,15.80
2022-12-04T21:36:07.187Z,15.75
2022-12-04T21:38:37.580Z,14.98
2022-12-04T21:41:11.177Z,14.85
2022-12-04T21:43:41.051Z,14.27
2022-12-04T21:46:10.994Z,14.88
2022-12-04T21:48:39.765Z,15.73
2022-12-04T21:51:26.668Z,15.30
2022-12-04T21:53:57.837Z,15.27
2022-12-04T21:56:28.023Z,14.60
2022-12-04T21:58:56.635Z,13.98
2022-12-04T22:01:26.731Z,15.55
2022-12-04T22:03:56.888Z,15.68
2022-12-04T22:06:26.256Z,15.15
2022-12-04T22:08:54.604Z,13.43
2022-12-04T22:11:23.123Z,15.80
2022-12-04T22:13:52.840Z,14.07
2022-12-04T22:16:26.789Z,15.88
2022-12-04T22:18:59.240Z,14.63
2022-12-04T22:21:29.364Z,14.82
2022-12-04T22:23:58.756Z,14.45
2022-12-04T22:26:28.329Z,14.57
2022-12-04T22:28:58.490Z,13.38
2022-12-04T22:31:28.825Z,13.88
2022-12-04T22:33:59.852Z,14.13
2022-12-04T22:36:30.913Z,13.73
2022-12-04T22:39:09.497Z,13.48
2022-12-04T22:41:39.191Z,14.25
2022-12-04T22:44:09.004Z,14.43
2022-12-04T22:46:37.311Z,14.43
2022-12-04T22:49:05.865Z,14.63
2022-12-04T22:51:34.279Z,13.98
2022-12-04T22:54:02.771Z,13.13
2022-12-04T22:56:32.629Z,13.68
2022-12-04T22:59:01.552Z,14.60
2022-12-04T23:01:33.050Z,14.45
2022-12-04T23:04:02.248Z,13.13
2022-12-04T23:06:33.027Z,13.68
2022-12-04T23:09:03.595Z,13.82
2022-12-04T23:11:32.681Z,13.90
2022-12-04T23:14:04.555Z,12.95
2022-12-04T23:16:37.040Z,12.77
2022-12-04T23:19:05.579Z,13.88
2022-12-04T23:21:34.481Z,12.75
2022-12-04T23:24:03.049Z,13.38
2022-12-04T23:26:36.457Z,12.82
2022-12-04T23:29:18.050Z,13.07
2022-12-04T23:31:55.687Z,12.73
2022-12-04T23:34:24.223Z,13.00
2022-12-04T23:36:52.499Z,13.25
2022-12-04T23:39:20.974Z,12.95
2022-12-04T23:41:49.273Z,13.57
2022-12-04T23:44:18.095Z,12.68
2022-12-04T23:46:46.466Z,12.55
2022-12-04T23:49:16.336Z,13.27
2022-12-04T23:51:44.815Z,12.07
2022-12-04T23:54:13.926Z,12.23
2022-12-04T23:56:42.242Z,11.57
2022-12-04T23:59:10.698Z,12.07
